Time;durP1;ratioP1;P1;durP2;ratioP2;P2;SDS_P1;SDS_P2;PMS_P1;PMS_P2;Temp;Humidity;BMP_temperature;BMP_pressure;BME280_temperature;BME280_humidity;BME280_pressure;Samples;Min_cycle;Max_cycle;Signal;HPM_P1;HPM_P2
2023/04/05 00:01:37;;;;;;;;;;;6.70;62.30;;;;;;5051787;28;19925;-78
2023/04/05 00:04:06;;;;;;;;;;;6.70;62.40;;;;;;5060821;28;20255;-78
2023/04/05 00:06:33;;;;;;;;;;;6.60;62.40;;;;;;5052200;28;19932;-78
2023/04/05 00:09:02;;;;;;;;;;;6.60;62.60;;;;;;5052653;28;19936;-77
2023/04/05 00:11:29;;;;;;;;;;;6.60;62.60;;;;;;5056756;28;19928;-78
2023/04/05 00:13:56;;;;;;;;;;;6.60;62.70;;;;;;5050208;28;19932;-78
2023/04/05 00:16:23;;;;;;;;;;;6.50;62.60;;;;;;5058114;28;19935;-78
2023/04/05 00:18:50;;;;;;;;;;;6.50;62.70;;;;;;5061417;28;19929;-78
2023/04/05 00:21:17;;;;;;;;;;;6.50;62.80;;;;;;5059823;28;19936;-77
2023/04/05 00:23:43;;;;;;;;;;;6.50;63.00;;;;;;5065879;28;20738;-77
2023/04/05 00:26:12;;;;;;;;;;;6.40;62.90;;;;;;5063026;28;19928;-77
2023/04/05 00:28:38;;;;;;;;;;;6.40;63.10;;;;;;5058541;28;19929;-79
2023/04/05 00:31:05;;;;;;;;;;;6.40;63.20;;;;;;5060084;28;19936;-79
2023/04/05 00:33:32;;;;;;;;;;;6.30;63.30;;;;;;5057435;28;20433;-78
2023/04/05 00:36:07;;;;;;;;;;;6.30;63.30;;;;;;5063193;28;19936;-78
2023/04/05 00:38:34;;;;;;;;;;;6.30;63.40;;;;;;5059645;28;20341;-79
2023/04/05 00:41:00;;;;;;;;;;;6.30;63.40;;;;;;5060832;28;19932;-78
2023/04/05 00:43:28;;;;;;;;;;;6.30;63.50;;;;;;5063981;28;19991;-77
2023/04/05 00:45:55;;;;;;;;;;;6.30;63.70;;;;;;5061206;28;19936;-77
2023/04/05 00:48:22;;;;;;;;;;;6.20;63.70;;;;;;5057014;28;19935;-79
2023/04/05 00:50:49;;;;;;;;;;;6.20;63.70;;;;;;5057658;28;20038;-79
2023/04/05 00:53:15;;;;;;;;;;;6.20;63.70;;;;;;5059255;28;20684;-79
2023/04/05 00:55:42;;;;;;;;;;;6.10;63.70;;;;;;5059599;28;19936;-78
2023/04/05 00:58:09;;;;;;;;;;;6.10;63.80;;;;;;5060229;28;20450;-78
2023/04/05 01:00:38;;;;;;;;;;;6.10;63.90;;;;;;5058548;28;19936;-79
2023/04/05 01:03:06;;;;;;;;;;;6.10;63.90;;;;;;5058148;28;19947;-78
2023/04/05 01:05:37;;;;;;;;;;;6.00;64.00;;;;;;5065010;28;19929;-78
2023/04/05 01:08:08;;;;;;;;;;;6.00;64.00;;;;;;5060736;28;19932;-79
2023/04/05 01:10:36;;;;;;;;;;;6.00;64.10;;;;;;5054477;28;19940;-77
2023/04/05 01:13:03;;;;;;;;;;;6.00;64.20;;;;;;5049797;28;19928;-79
2023/04/05 01:15:30;;;;;;;;;;;6.00;64.20;;;;;;5056289;28;19936;-77
2023/04/05 01:18:00;;;;;;;;;;;5.90;64.20;;;;;;5059679;28;19935;-78
2023/04/05 01:20:28;;;;;;;;;;;5.90;64.20;;;;;;5055968;28;20692;-77
2023/04/05 01:23:05;;;;;;;;;;;5.90;64.30;;;;;;5057418;28;20409;-78
2023/04/05 01:25:45;;;;;;;;;;;5.90;64.40;;;;;;5055508;28;19956;-79
2023/04/05 01:28:29;;;;;;;;;;;5.80;64.40;;;;;;5056995;28;20078;-76
2023/04/05 01:31:02;;;;;;;;;;;5.80;64.50;;;;;;5045118;28;19928;-78
2023/04/05 01:33:31;;;;;;;;;;;5.80;64.50;;;;;;5056797;28;19979;-78
2023/04/05 01:36:01;;;;;;;;;;;5.70;64.60;;;;;;5062022;28;19962;-78
2023/04/05 01:38:28;;;;;;;;;;;5.70;64.60;;;;;;5058068;28;20345;-78
2023/04/05 01:40:54;;;;;;;;;;;5.70;64.70;;;;;;5060766;28;19966;-78
2023/04/05 01:43:21;;;;;;;;;;;5.60;64.60;;;;;;5048922;28;19929;-77
2023/04/05 01:45:47;;;;;;;;;;;5.70;64.70;;;;;;5054689;28;19928;-78
2023/04/05 01:48:15;;;;;;;;;;;5.60;64.80;;;;;;5060757;28;19933;-78
2023/04/05 01:50:42;;;;;;;;;;;5.60;64.80;;;;;;5057732;28;20015;-78
2023/04/05 01:53:09;;;;;;;;;;;5.50;64.80;;;;;;5057562;28;19974;-78
2023/04/05 01:55:35;;;;;;;;;;;5.50;64.80;;;;;;5056973;28;20039;-78
2023/04/05 01:58:02;;;;;;;;;;;5.50;64.90;;;;;;5056477;28;20660;-78
2023/04/05 02:00:28;;;;;;;;;;;5.50;64.90;;;;;;5056659;28;19942;-77
2023/04/05 02:02:55;;;;;;;;;;;5.40;64.90;;;;;;5058076;28;19928;-78
2023/04/05 02:05:23;;;;;;;;;;;5.40;65.00;;;;;;5051437;28;19975;-76
2023/04/05 02:07:50;;;;;;;;;;;5.40;65.10;;;;;;5060911;28;19932;-78
2023/04/05 02:10:17;;;;;;;;;;;5.40;65.20;;;;;;5059014;28;19932;-77
2023/04/05 02:12:44;;;;;;;;;;;5.40;65.30;;;;;;5056797;28;21219;-78
2023/04/05 02:15:11;;;;;;;;;;;5.30;65.20;;;;;;5055926;28;19939;-78
2023/04/05 02:17:38;;;;;;;;;;;5.30;65.30;;;;;;5053086;28;19968;-78
2023/04/05 02:20:06;;;;;;;;;;;5.30;65.40;;;;;;5061111;28;19971;-77
2023/04/05 02:22:35;;;;;;;;;;;5.30;65.50;;;;;;5057038;28;20668;-77
2023/04/05 02:25:02;;;;;;;;;;;5.20;65.40;;;;;;5057481;28;20005;-78
2023/04/05 02:27:28;;;;;;;;;;;5.20;65.50;;;;;;5058938;28;20678;-78
2023/04/05 02:29:56;;;;;;;;;;;5.20;65.60;;;;;;5058908;28;19943;-77
2023/04/05 02:32:22;;;;;;;;;;;5.10;65.50;;;;;;5056095;28;19929;-77
2023/04/05 02:34:51;;;;;;;;;;;5.10;65.60;;;;;;5060327;28;19931;-77
2023/04/05 02:37:18;;;;;;;;;;;5.10;65.70;;;;;;5058687;28;19932;-78
2023/04/05 02:39:46;;;;;;;;;;;5.10;65.80;;;;;;5054557;28;19963;-77
2023/04/05 02:42:12;;;;;;;;;;;5.10;65.90;;;;;;5056823;28;19951;-76
2023/04/05 02:44:39;;;;;;;;;;;5.00;65.90;;;;;;5051348;28;19928;-77
2023/04/05 02:47:05;;;;;;;;;;;5.00;66.00;;;;;;5057730;28;20696;-78
2023/04/05 02:49:32;;;;;;;;;;;5.00;66.10;;;;;;5057783;28;19932;-78
2023/04/05 02:51:59;;;;;;;;;;;4.90;66.10;;;;;;5058177;28;19928;-77
2023/04/05 02:54:25;;;;;;;;;;;5.00;66.20;;;;;;5058843;28;19929;-77
2023/04/05 02:56:56;;;;;;;;;;;4.90;66.20;;;;;;5056350;28;19986;-76
2023/04/05 02:59:23;;;;;;;;;;;4.90;66.30;;;;;;5053333;28;19933;-76
2023/04/05 03:01:49;;;;;;;;;;;4.80;66.30;;;;;;5050624;28;19928;-76
2023/04/05 03:04:17;;;;;;;;;;;4.80;66.40;;;;;;5054464;28;20773;-79
2023/04/05 03:06:47;;;;;;;;;;;4.90;66.50;;;;;;5054125;28;19943;-77
2023/04/05 03:09:14;;;;;;;;;;;4.80;66.50;;;;;;5054324;28;19935;-78
2023/04/05 03:11:40;;;;;;;;;;;4.80;66.60;;;;;;5053325;28;21923;-76
2023/04/05 03:14:08;;;;;;;;;;;4.80;66.70;;;;;;5053349;28;20789;-79
2023/04/05 03:16:35;;;;;;;;;;;4.70;66.60;;;;;;5053099;28;19940;-79
2023/04/05 03:19:04;;;;;;;;;;;4.70;66.60;;;;;;5048220;28;19933;-78
2023/04/05 03:21:30;;;;;;;;;;;4.70;66.60;;;;;;5052391;28;19992;-77
2023/04/05 03:23:57;;;;;;;;;;;4.70;66.70;;;;;;5052676;28;19932;-77
2023/04/05 03:26:24;;;;;;;;;;;4.60;66.60;;;;;;5053129;28;19928;-77
2023/04/05 03:28:50;;;;;;;;;;;4.60;66.70;;;;;;5049966;28;20510;-77
2023/04/05 03:31:18;;;;;;;;;;;4.60;66.80;;;;;;5055224;28;19928;-77
2023/04/05 03:33:44;;;;;;;;;;;4.60;66.90;;;;;;5050902;28;19940;-77
2023/04/05 03:36:15;;;;;;;;;;;4.60;66.90;;;;;;5054110;28;19936;-77
2023/04/05 03:38:43;;;;;;;;;;;4.50;66.80;;;;;;5052054;28;19955;-76
2023/04/05 03:41:10;;;;;;;;;;;4.50;66.90;;;;;;5052556;28;19934;-77
2023/04/05 03:43:36;;;;;;;;;;;4.50;67.00;;;;;;5046732;28;20348;-77
2023/04/05 03:46:03;;;;;;;;;;;4.50;67.00;;;;;;5055516;28;20632;-78
2023/04/05 03:48:31;;;;;;;;;;;4.50;67.10;;;;;;5052711;28;19932;-77
2023/04/05 03:50:57;;;;;;;;;;;4.40;67.00;;;;;;5056495;28;19932;-75
2023/04/05 03:53:25;;;;;;;;;;;4.40;67.10;;;;;;5054510;28;19932;-76
2023/04/05 03:55:53;;;;;;;;;;;4.40;67.10;;;;;;5053430;28;19939;-76
2023/04/05 03:58:19;;;;;;;;;;;4.40;67.20;;;;;;5052161;28;20421;-77
2023/04/05 04:00:46;;;;;;;;;;;4.30;67.10;;;;;;5053178;28;20252;-77
2023/04/05 04:03:12;;;;;;;;;;;4.30;67.20;;;;;;5054565;28;19928;-77
2023/04/05 04:05:40;;;;;;;;;;;4.30;67.20;;;;;;5053305;28;20080;-78
2023/04/05 04:08:08;;;;;;;;;;;4.30;67.20;;;;;;5052590;28;19928;-79
2023/04/05 04:10:35;;;;;;;;;;;4.30;67.20;;;;;;5049406;28;19932;-78
2023/04/05 04:13:01;;;;;;;;;;;4.30;67.30;;;;;;5053421;28;19928;-77
2023/04/05 04:15:28;;;;;;;;;;;4.20;67.30;;;;;;5054861;28;19936;-77
2023/04/05 04:17:54;;;;;;;;;;;4.20;67.30;;;;;;5057021;28;19940;-76
2023/04/05 04:20:21;;;;;;;;;;;4.20;67.40;;;;;;5052756;28;20302;-78
2023/04/05 04:22:49;;;;;;;;;;;4.20;67.40;;;;;;5057435;28;19939;-78
2023/04/05 04:25:17;;;;;;;;;;;4.10;67.40;;;;;;5053120;28;19929;-76
2023/04/05 04:27:45;;;;;;;;;;;4.10;67.40;;;;;;5055883;28;19944;-77
2023/04/05 04:30:12;;;;;;;;;;;4.10;67.50;;;;;;5054587;28;20453;-77
2023/04/05 04:32:52;;;;;;;;;;;4.10;67.50;;;;;;5059934;28;20027;-78
2023/04/05 04:35:19;;;;;;;;;;;4.10;67.60;;;;;;5060471;28;19928;-78
2023/04/05 04:37:46;;;;;;;;;;;4.00;67.60;;;;;;5060339;28;19929;-78
2023/04/05 04:40:16;;;;;;;;;;;4.00;67.70;;;;;;5055112;28;19975;-76
2023/04/05 04:42:45;;;;;;;;;;;4.00;67.70;;;;;;5056408;28;19983;-76
2023/04/05 04:45:14;;;;;;;;;;;4.00;67.80;;;;;;5056982;28;19935;-76
2023/04/05 04:47:42;;;;;;;;;;;3.90;67.80;;;;;;5053521;28;20394;-78
2023/04/05 04:50:09;;;;;;;;;;;3.90;67.90;;;;;;5054474;28;20601;-78
2023/04/05 04:52:35;;;;;;;;;;;3.90;67.90;;;;;;5053910;28;19932;-78
2023/04/05 04:55:03;;;;;;;;;;;3.90;67.90;;;;;;5051343;28;19932;-78
2023/04/05 04:57:31;;;;;;;;;;;3.90;68.00;;;;;;5051011;28;19956;-77
2023/04/05 04:59:57;;;;;;;;;;;3.80;68.00;;;;;;5054523;28;20408;-76
2023/04/05 05:02:24;;;;;;;;;;;3.80;68.10;;;;;;5049353;28;20540;-77
2023/04/05 05:04:51;;;;;;;;;;;3.80;68.10;;;;;;5060166;28;20345;-77
2023/04/05 05:07:17;;;;;;;;;;;3.80;68.10;;;;;;5058645;28;19971;-76
2023/04/05 05:09:44;;;;;;;;;;;3.80;68.20;;;;;;5062782;28;19932;-76
2023/04/05 05:12:11;;;;;;;;;;;3.70;68.10;;;;;;5061461;28;20322;-75
2023/04/05 05:14:39;;;;;;;;;;;3.70;68.20;;;;;;5059799;28;20533;-78
2023/04/05 05:17:07;;;;;;;;;;;3.70;68.30;;;;;;5054396;28;20850;-76
2023/04/05 05:19:34;;;;;;;;;;;3.70;68.30;;;;;;5059917;28;19928;-77
2023/04/05 05:22:00;;;;;;;;;;;3.60;68.30;;;;;;5060946;28;19939;-76
2023/04/05 05:24:27;;;;;;;;;;;3.60;68.40;;;;;;5061238;28;19928;-76
2023/04/05 05:26:53;;;;;;;;;;;3.60;68.50;;;;;;5055840;28;20216;-75
2023/04/05 05:29:20;;;;;;;;;;;3.60;68.40;;;;;;5056854;28;19939;-76
2023/04/05 05:31:48;;;;;;;;;;;3.60;68.50;;;;;;5053066;28;19929;-78
2023/04/05 05:34:14;;;;;;;;;;;3.60;68.60;;;;;;5055276;28;19935;-76
2023/04/05 05:36:41;;;;;;;;;;;3.50;68.50;;;;;;5054553;28;19937;-77
2023/04/05 05:39:07;;;;;;;;;;;3.50;68.60;;;;;;5061022;28;19935;-76
2023/04/05 05:41:35;;;;;;;;;;;3.50;68.70;;;;;;5054223;28;19929;-76
2023/04/05 05:44:01;;;;;;;;;;;3.50;68.80;;;;;;5061754;28;19932;-75
2023/04/05 05:46:28;;;;;;;;;;;3.30;67.70;;;;;;5057021;28;19928;-76
2023/04/05 05:48:56;;;;;;;;;;;2.90;70.20;;;;;;5054024;28;19935;-76
2023/04/05 05:51:23;;;;;;;;;;;2.80;71.10;;;;;;5058349;28;19968;-76
2023/04/05 05:53:50;;;;;;;;;;;2.70;71.50;;;;;;5059797;28;19928;-79
2023/04/05 05:56:16;;;;;;;;;;;2.80;71.50;;;;;;5051421;28;19932;-77
2023/04/05 05:58:43;;;;;;;;;;;2.80;71.30;;;;;;5060576;28;19935;-75
2023/04/05 06:01:10;;;;;;;;;;;2.90;72.00;;;;;;5057204;28;20318;-76
2023/04/05 06:03:37;;;;;;;;;;;2.80;71.00;;;;;;5059537;28;19928;-76
2023/04/05 06:06:07;;;;;;;;;;;2.90;70.90;;;;;;5053535;28;19928;-76
2023/04/05 06:08:34;;;;;;;;;;;3.00;70.80;;;;;;5055623;28;19936;-76
2023/04/05 06:11:00;;;;;;;;;;;3.00;70.70;;;;;;5054904;28;19944;-76
2023/04/05 06:13:27;;;;;;;;;;;3.00;70.70;;;;;;5054999;28;19928;-77
2023/04/05 06:15:53;;;;;;;;;;;3.10;70.70;;;;;;5052332;28;19936;-76
2023/04/05 06:18:20;;;;;;;;;;;3.00;70.60;;;;;;5049572;28;19925;-76
2023/04/05 06:20:47;;;;;;;;;;;3.00;70.60;;;;;;5059165;28;19932;-76
2023/04/05 06:23:15;;;;;;;;;;;3.00;70.60;;;;;;5056656;28;19933;-76
2023/04/05 06:25:43;;;;;;;;;;;3.10;70.80;;;;;;5053152;28;19935;-78
2023/04/05 06:28:09;;;;;;;;;;;3.10;70.80;;;;;;5058456;28;19935;-76
2023/04/05 06:30:36;;;;;;;;;;;3.00;70.70;;;;;;5059334;28;20682;-76
2023/04/05 06:33:02;;;;;;;;;;;3.00;70.70;;;;;;5057466;28;19928;-76
2023/04/05 06:35:29;;;;;;;;;;;3.00;70.70;;;;;;5048253;28;19932;-77
2023/04/05 06:37:55;;;;;;;;;;;3.00;70.80;;;;;;5054623;28;19929;-78
2023/04/05 06:40:24;;;;;;;;;;;3.00;71.50;;;;;;5057321;28;20001;-77
2023/04/05 06:42:50;;;;;;;;;;;3.00;73.10;;;;;;5055123;28;19929;-76
2023/04/05 06:45:18;;;;;;;;;;;3.00;73.40;;;;;;5057663;28;19929;-77
2023/04/05 06:47:45;;;;;;;;;;;3.10;73.80;;;;;;5056456;28;19960;-76
2023/04/05 06:50:11;;;;;;;;;;;3.20;73.60;;;;;;5053203;28;19935;-76
2023/04/05 06:52:39;;;;;;;;;;;3.20;73.10;;;;;;5055418;28;19928;-77
2023/04/05 06:55:06;;;;;;;;;;;3.30;72.70;;;;;;5052972;28;20665;-77
2023/04/05 06:57:35;;;;;;;;;;;3.40;72.40;;;;;;5053304;28;20374;-77
2023/04/05 07:00:07;;;;;;;;;;;3.40;71.90;;;;;;5050141;28;20385;-78
2023/04/05 07:02:34;;;;;;;;;;;3.50;71.60;;;;;;5057333;28;20743;-77
2023/04/05 07:05:04;;;;;;;;;;;3.50;71.20;;;;;;5050962;28;19928;-77
2023/04/05 07:07:31;;;;;;;;;;;3.60;70.90;;;;;;5052216;28;19932;-79
2023/04/05 07:09:57;;;;;;;;;;;3.60;70.60;;;;;;5058952;28;19939;-79
2023/04/05 07:12:24;;;;;;;;;;;3.70;70.40;;;;;;5064389;28;19992;-77
2023/04/05 07:14:52;;;;;;;;;;;3.70;70.20;;;;;;5062371;28;19924;-79
2023/04/05 07:17:18;;;;;;;;;;;3.70;70.00;;;;;;5059213;28;20472;-79
2023/04/05 07:19:45;;;;;;;;;;;3.80;69.80;;;;;;5053117;28;19990;-78
2023/04/05 07:22:11;;;;;;;;;;;3.80;69.60;;;;;;5057772;28;19944;-77
2023/04/05 07:24:38;;;;;;;;;;;3.80;69.40;;;;;;5062975;28;19954;-78
2023/04/05 07:27:04;;;;;;;;;;;3.80;69.30;;;;;;5053892;28;19932;-79
2023/04/05 07:29:31;;;;;;;;;;;3.90;69.20;;;;;;5052635;28;19933;-78
2023/04/05 07:31:59;;;;;;;;;;;3.90;69.10;;;;;;5054760;28;19925;-77
2023/04/05 07:34:26;;;;;;;;;;;3.90;68.90;;;;;;5059962;28;20267;-78
2023/04/05 07:36:52;;;;;;;;;;;3.90;68.80;;;;;;5060481;28;20020;-77
2023/04/05 07:39:20;;;;;;;;;;;3.90;68.70;;;;;;5052739;28;19935;-79
2023/04/05 07:41:46;;;;;;;;;;;4.00;68.70;;;;;;5053446;28;20489;-79
2023/04/05 07:44:13;;;;;;;;;;;4.00;68.50;;;;;;5067081;28;19936;-78
2023/04/05 07:46:43;;;;;;;;;;;4.00;68.50;;;;;;5062620;28;19943;-79
2023/04/05 07:49:11;;;;;;;;;;;4.00;68.30;;;;;;5053314;28;19932;-79
2023/04/05 07:51:38;;;;;;;;;;;4.00;68.20;;;;;;5052962;28;19936;-78
2023/04/05 07:54:06;;;;;;;;;;;4.00;68.20;;;;;;5062251;28;20443;-79
2023/04/05 07:56:33;;;;;;;;;;;4.10;68.20;;;;;;5060157;28;19932;-79
2023/04/05 07:59:00;;;;;;;;;;;4.10;68.10;;;;;;5037739;28;19928;-79
2023/04/05 08:01:27;;;;;;;;;;;4.10;68.10;;;;;;5044112;28;19924;-76
2023/04/05 08:03:56;;;;;;;;;;;4.10;68.00;;;;;;5051016;28;19980;-76
2023/04/05 08:06:24;;;;;;;;;;;4.10;68.00;;;;;;5054416;28;19924;-77
2023/04/05 08:08:50;;;;;;;;;;;4.10;67.90;;;;;;5054221;28;19928;-77
2023/04/05 08:11:17;;;;;;;;;;;4.10;67.70;;;;;;5050416;28;19928;-77
2023/04/05 08:13:43;;;;;;;;;;;4.20;67.70;;;;;;5054762;28;19928;-77
2023/04/05 08:16:11;;;;;;;;;;;4.20;67.70;;;;;;5056085;28;20035;-77
2023/04/05 08:18:38;;;;;;;;;;;4.30;67.70;;;;;;5060581;28;19974;-77
2023/04/05 08:21:04;;;;;;;;;;;4.20;67.60;;;;;;5048353;28;19932;-76
2023/04/05 08:23:32;;;;;;;;;;;4.20;67.50;;;;;;5059727;28;19928;-78
2023/04/05 08:25:59;;;;;;;;;;;4.30;67.50;;;;;;5058841;28;19929;-77
2023/04/05 08:28:25;;;;;;;;;;;4.30;67.50;;;;;;5049932;28;19998;-76
2023/04/05 08:30:53;;;;;;;;;;;4.30;67.40;;;;;;5053264;28;19929;-77
2023/04/05 08:33:19;;;;;;;;;;;4.40;67.50;;;;;;5051188;28;19936;-77
2023/04/05 08:35:46;;;;;;;;;;;4.40;67.40;;;;;;5056938;28;19971;-78
2023/04/05 08:38:12;;;;;;;;;;;4.40;67.30;;;;;;5052304;28;19936;-77
2023/04/05 08:40:42;;;;;;;;;;;4.50;67.20;;;;;;5058074;28;20411;-78
2023/04/05 08:43:10;;;;;;;;;;;4.50;67.00;;;;;;5057974;28;20015;-79
2023/04/05 08:45:43;;;;;;;;;;;4.50;66.80;;;;;;5052938;28;19928;-77
2023/04/05 08:48:10;;;;;;;;;;;4.60;66.60;;;;;;5053510;28;19932;-77
2023/04/05 08:50:36;;;;;;;;;;;4.60;66.50;;;;;;5047407;28;19932;-76
2023/04/05 08:53:03;;;;;;;;;;;4.70;66.30;;;;;;5048271;28;19932;-78
2023/04/05 08:55:29;;;;;;;;;;;4.70;66.10;;;;;;5053475;28;19932;-77
2023/04/05 08:57:58;;;;;;;;;;;4.80;66.00;;;;;;5052423;28;19936;-77
2023/04/05 09:00:26;;;;;;;;;;;4.90;65.80;;;;;;5054813;28;19928;-76
2023/04/05 09:02:54;;;;;;;;;;;4.90;65.50;;;;;;5049204;28;19964;-76
2023/04/05 09:05:23;;;;;;;;;;;5.00;65.40;;;;;;5051751;28;21664;-77
2023/04/05 09:07:50;;;;;;;;;;;5.00;65.10;;;;;;5043997;28;20310;-78
2023/04/05 09:10:18;;;;;;;;;;;5.10;65.00;;;;;;5050437;28;19932;-77
2023/04/05 09:12:45;;;;;;;;;;;5.10;64.80;;;;;;5044372;28;19933;-75
2023/04/05 09:15:14;;;;;;;;;;;5.20;64.40;;;;;;5042482;28;19933;-77
2023/04/05 09:17:41;;;;;;;;;;;5.30;64.20;;;;;;5045002;28;19933;-77
2023/04/05 09:20:08;;;;;;;;;;;5.30;63.90;;;;;;5041482;28;20076;-78
2023/04/05 09:22:42;;;;;;;;;;;5.40;63.70;;;;;;5046617;28;19928;-76
2023/04/05 09:25:08;;;;;;;;;;;5.40;63.40;;;;;;5051071;28;20086;-80
2023/04/05 09:27:35;;;;;;;;;;;5.50;63.30;;;;;;5054228;28;20923;-79
2023/04/05 09:30:02;;;;;;;;;;;5.60;63.20;;;;;;5049127;28;19928;-80
2023/04/05 09:32:29;;;;;;;;;;;5.60;63.10;;;;;;5049395;28;19932;-80
2023/04/05 09:35:01;;;;;;;;;;;5.70;63.00;;;;;;5043444;28;19929;-78
2023/04/05 09:37:27;;;;;;;;;;;5.80;63.00;;;;;;5041710;28;19936;-77
2023/04/05 09:40:02;;;;;;;;;;;5.80;62.50;;;;;;5045472;28;19990;-78
2023/04/05 09:42:30;;;;;;;;;;;5.80;62.20;;;;;;5042097;28;20034;-77
2023/04/05 09:45:00;;;;;;;;;;;5.90;62.10;;;;;;5054306;28;19936;-76
2023/04/05 09:47:30;;;;;;;;;;;6.00;62.00;;;;;;5054479;28;20241;-76
2023/04/05 09:49:57;;;;;;;;;;;6.10;61.90;;;;;;5051097;28;19928;-77
2023/04/05 09:52:24;;;;;;;;;;;6.10;61.60;;;;;;5053325;28;20337;-77
2023/04/05 09:54:52;;;;;;;;;;;6.20;61.60;;;;;;5047564;28;20015;-78
2023/04/05 09:57:18;;;;;;;;;;;6.20;61.40;;;;;;5048843;28;19939;-76
2023/04/05 09:59:45;;;;;;;;;;;6.30;61.40;;;;;;5042114;28;20129;-75
2023/04/05 10:02:12;;;;;;;;;;;6.40;61.30;;;;;;5051052;28;19932;-77
2023/04/05 10:04:39;;;;;;;;;;;6.40;61.00;;;;;;5047067;28;19939;-79
2023/04/05 10:07:07;;;;;;;;;;;6.50;61.00;;;;;;5045120;28;19933;-76
2023/04/05 10:09:34;;;;;;;;;;;6.50;60.20;;;;;;5048012;28;19933;-78
2023/04/05 10:12:01;;;;;;;;;;;6.50;60.30;;;;;;5048787;28;20031;-76
2023/04/05 10:14:27;;;;;;;;;;;6.60;60.10;;;;;;5042893;28;19982;-76
2023/04/05 10:16:59;;;;;;;;;;;6.70;60.10;;;;;;5042363;28;19974;-77
2023/04/05 10:19:27;;;;;;;;;;;6.80;60.10;;;;;;5048496;28;19928;-76
2023/04/05 10:21:54;;;;;;;;;;;6.90;60.10;;;;;;5051419;28;20010;-75
2023/04/05 10:24:28;;;;;;;;;;;7.00;60.00;;;;;;5054783;28;19932;-78
2023/04/05 10:27:01;;;;;;;;;;;7.00;59.70;;;;;;5061293;28;19929;-78
2023/04/05 10:29:34;;;;;;;;;;;7.10;59.70;;;;;;5058800;28;19997;-78
2023/04/05 10:32:05;;;;;;;;;;;7.10;59.50;;;;;;5061044;28;19928;-80
2023/04/05 10:34:39;;;;;;;;;;;7.20;59.00;;;;;;5057617;28;19979;-78
2023/04/05 10:37:06;;;;;;;;;;;7.30;58.30;;;;;;5054548;28;19932;-80
2023/04/05 10:39:39;;;;;;;;;;;7.40;58.70;;;;;;5055575;28;19970;-79
2023/04/05 10:42:07;;;;;;;;;;;7.40;58.30;;;;;;5057080;28;20127;-80
2023/04/05 10:44:35;;;;;;;;;;;7.50;58.30;;;;;;5055269;28;19936;-80
2023/04/05 10:47:03;;;;;;;;;;;7.60;58.80;;;;;;5056544;28;19929;-80
2023/04/05 10:49:34;;;;;;;;;;;7.60;58.90;;;;;;5053833;28;19933;-73
2023/04/05 10:52:01;;;;;;;;;;;7.70;58.80;;;;;;5060077;28;19936;-74
2023/04/05 10:54:28;;;;;;;;;;;7.80;59.00;;;;;;5052178;28;19928;-71
2023/04/05 10:56:56;;;;;;;;;;;7.80;57.80;;;;;;5058296;28;20341;-73
2023/04/05 10:59:23;;;;;;;;;;;7.90;57.00;;;;;;5051821;28;19936;-71
2023/04/05 11:01:50;;;;;;;;;;;7.90;57.60;;;;;;5049255;28;19981;-72
2023/04/05 11:04:17;;;;;;;;;;;8.00;57.70;;;;;;5051035;28;19928;-71
2023/04/05 11:06:46;;;;;;;;;;;8.10;58.10;;;;;;5040820;28;19932;-72
2023/04/05 11:09:14;;;;;;;;;;;8.10;58.30;;;;;;5045915;28;19932;-72
2023/04/05 11:11:42;;;;;;;;;;;8.20;58.10;;;;;;5050630;28;20671;-72
2023/04/05 11:14:21;;;;;;;;;;;8.30;56.40;;;;;;5048519;28;19936;-74
2023/04/05 11:16:48;;;;;;;;;;;8.30;57.00;;;;;;5055955;28;20011;-73
2023/04/05 11:19:16;;;;;;;;;;;8.40;55.80;;;;;;5052884;28;19929;-72
2023/04/05 11:21:43;;;;;;;;;;;8.40;56.00;;;;;;5049156;28;19961;-74
2023/04/05 11:24:11;;;;;;;;;;;8.50;56.70;;;;;;5055989;28;19998;-75
2023/04/05 11:26:53;;;;;;;;;;;8.60;56.70;;;;;;5051386;28;19929;-75
2023/04/05 11:29:39;;;;;;;;;;;8.60;57.40;;;;;;5050422;28;21579;-72
2023/04/05 11:32:12;;;;;;;;;;;8.70;56.70;;;;;;5048117;28;19928;-75
2023/04/05 11:34:41;;;;;;;;;;;8.70;56.50;;;;;;5051399;28;19935;-75
2023/04/05 11:37:08;;;;;;;;;;;8.80;56.20;;;;;;5052716;28;19936;-78
2023/04/05 11:39:36;;;;;;;;;;;8.80;55.60;;;;;;5052394;28;19933;-77
2023/04/05 11:42:03;;;;;;;;;;;8.90;54.80;;;;;;5053621;28;19928;-78
2023/04/05 11:44:39;;;;;;;;;;;8.90;54.00;;;;;;5051650;28;19932;-77
2023/04/05 11:47:06;;;;;;;;;;;9.00;54.10;;;;;;5054884;28;19928;-79
2023/04/05 11:49:35;;;;;;;;;;;9.00;54.10;;;;;;5045732;28;19933;-78
2023/04/05 11:52:10;;;;;;;;;;;9.10;54.10;;;;;;5053346;28;20019;-77
2023/04/05 11:54:36;;;;;;;;;;;9.20;54.20;;;;;;5047599;28;19928;-77
2023/04/05 11:57:03;;;;;;;;;;;9.30;53.80;;;;;;5053170;28;19935;-78
2023/04/05 11:59:30;;;;;;;;;;;9.30;54.10;;;;;;5052551;28;19939;-77
2023/04/05 12:02:01;;;;;;;;;;;9.30;54.40;;;;;;5053976;28;20397;-77
2023/04/05 12:04:27;;;;;;;;;;;9.40;53.90;;;;;;5053163;28;19943;-77
2023/04/05 12:07:14;;;;;;;;;;;9.40;52.80;;;;;;5037729;28;20028;-78
2023/04/05 12:09:57;;;;;;;;;;;9.50;53.90;;;;;;5051756;28;20728;-77
2023/04/05 12:12:23;;;;;;;;;;;9.60;54.20;;;;;;5052816;28;19940;-78
2023/04/05 12:14:50;;;;;;;;;;;9.80;51.90;;;;;;5056797;28;19983;-80
2023/04/05 12:17:16;;;;;;;;;;;10.00;51.70;;;;;;5062505;28;19932;-78
2023/04/05 12:19:43;;;;;;;;;;;10.00;51.00;;;;;;5063517;28;20775;-78
2023/04/05 12:22:09;;;;;;;;;;;10.00;50.80;;;;;;5056892;28;19928;-79
2023/04/05 12:24:37;;;;;;;;;;;10.00;51.30;;;;;;5059421;28;20658;-80
2023/04/05 12:27:04;;;;;;;;;;;10.00;50.90;;;;;;5051607;28;19933;-77
2023/04/05 12:29:31;;;;;;;;;;;10.00;51.00;;;;;;5060500;28;19935;-77
2023/04/05 12:31:57;;;;;;;;;;;10.00;51.50;;;;;;5061966;28;19940;-78
2023/04/05 12:34:24;;;;;;;;;;;10.00;51.70;;;;;;5062782;28;19936;-79
2023/04/05 12:36:51;;;;;;;;;;;10.00;52.30;;;;;;5062923;28;20038;-80
2023/04/05 12:39:18;;;;;;;;;;;10.00;52.60;;;;;;5061727;28;19932;-77
2023/04/05 12:41:55;;;;;;;;;;;10.10;51.60;;;;;;5059311;28;20562;-79
2023/04/05 12:44:28;;;;;;;;;;;10.10;50.70;;;;;;5053484;28;19936;-78
2023/04/05 12:46:59;;;;;;;;;;;10.10;52.90;;;;;;5059373;28;20337;-78
2023/04/05 12:49:27;;;;;;;;;;;10.20;51.60;;;;;;5060506;28;19954;-78
2023/04/05 12:51:53;;;;;;;;;;;10.20;52.70;;;;;;5062674;28;19932;-78
2023/04/05 12:54:21;;;;;;;;;;;10.20;52.30;;;;;;5058343;28;19928;-78
2023/04/05 12:56:51;;;;;;;;;;;10.30;52.10;;;;;;5053772;28;19929;-79
2023/04/05 12:59:18;;;;;;;;;;;10.30;51.40;;;;;;5050301;28;20767;-78
2023/04/05 13:01:44;;;;;;;;;;;10.30;51.50;;;;;;5050660;28;20310;-77
2023/04/05 13:04:11;;;;;;;;;;;10.60;49.50;;;;;;5050223;28;19959;-77
2023/04/05 13:06:38;;;;;;;;;;;11.20;47.30;;;;;;5052175;28;19932;-79
2023/04/05 13:09:04;;;;;;;;;;;11.60;47.40;;;;;;5053902;28;19937;-78
2023/04/05 13:11:31;;;;;;;;;;;11.80;47.40;;;;;;5051987;28;20001;-77
2023/04/05 13:13:59;;;;;;;;;;;12.00;47.50;;;;;;5048369;28;20031;-75
2023/04/05 13:16:26;;;;;;;;;;;12.10;47.40;;;;;;5050435;28;19928;-78
2023/04/05 13:18:52;;;;;;;;;;;12.20;47.00;;;;;;5052738;28;20396;-78
2023/04/05 13:21:19;;;;;;;;;;;12.30;46.70;;;;;;5049546;28;19928;-78
2023/04/05 13:23:45;;;;;;;;;;;12.40;46.30;;;;;;5053890;28;20086;-78
2023/04/05 13:26:12;;;;;;;;;;;12.40;46.20;;;;;;5052685;28;19936;-78
2023/04/05 13:28:38;;;;;;;;;;;12.50;46.10;;;;;;5057955;28;19928;-78
2023/04/05 13:31:07;;;;;;;;;;;12.50;45.90;;;;;;5059098;28;19932;-81
2023/04/05 13:33:33;;;;;;;;;;;12.60;45.70;;;;;;5053867;28;19928;-79
2023/04/05 13:36:00;;;;;;;;;;;12.60;45.60;;;;;;5060222;28;19925;-79
2023/04/05 13:38:26;;;;;;;;;;;12.60;45.40;;;;;;5056733;28;19924;-79
2023/04/05 13:40:53;;;;;;;;;;;12.70;45.40;;;;;;5050517;28;19936;-78
2023/04/05 13:43:19;;;;;;;;;;;12.70;45.30;;;;;;5061366;28;19935;-80
2023/04/05 13:45:46;;;;;;;;;;;12.80;45.10;;;;;;5049198;28;19928;-78
2023/04/05 13:48:14;;;;;;;;;;;12.90;45.00;;;;;;5056386;28;20472;-76
2023/04/05 13:50:40;;;;;;;;;;;12.90;44.30;;;;;;5056137;28;19957;-78
2023/04/05 13:53:07;;;;;;;;;;;13.00;44.60;;;;;;5056384;28;19936;-78
2023/04/05 13:55:33;;;;;;;;;;;13.00;44.80;;;;;;5053510;28;19928;-78
2023/04/05 13:58:00;;;;;;;;;;;13.10;45.00;;;;;;5058247;28;19942;-78
2023/04/05 14:00:26;;;;;;;;;;;13.10;45.50;;;;;;5059219;28;19952;-77
2023/04/05 14:02:53;;;;;;;;;;;13.10;45.50;;;;;;5060250;28;20681;-76
2023/04/05 14:05:21;;;;;;;;;;;13.10;45.70;;;;;;5054032;28;20368;-78
2023/04/05 14:07:49;;;;;;;;;;;13.20;45.00;;;;;;5060791;28;20454;-78
2023/04/05 14:10:15;;;;;;;;;;;13.20;44.90;;;;;;5059310;28;19967;-78
2023/04/05 14:12:42;;;;;;;;;;;13.30;45.50;;;;;;5059292;28;19929;-77
2023/04/05 14:15:09;;;;;;;;;;;13.30;45.60;;;;;;5060135;28;19928;-78
2023/04/05 14:17:35;;;;;;;;;;;13.30;45.60;;;;;;5050194;28;19929;-77
2023/04/05 14:20:02;;;;;;;;;;;13.40;46.50;;;;;;5055378;28;20007;-79
2023/04/05 14:22:30;;;;;;;;;;;13.40;46.90;;;;;;5054342;28;19928;-78
2023/04/05 14:24:56;;;;;;;;;;;13.50;47.60;;;;;;5054209;28;19929;-78
2023/04/05 14:27:25;;;;;;;;;;;13.50;48.20;;;;;;5040657;28;19939;-73
2023/04/05 14:29:55;;;;;;;;;;;13.50;47.90;;;;;;5050735;28;19977;-75
2023/04/05 14:32:22;;;;;;;;;;;13.50;47.60;;;;;;5051102;28;20387;-74